Date,TemperatureHighF,TemperatureAvgF,TemperatureLowF,DewpointHighF,DewpointAvgF,DewpointLowF,HumidityHigh,HumidityAvg,HumidityLow,PressureMaxIn,PressureMinIn,WindSpeedMaxMPH,WindSpeedAvgMPH,GustSpeedMaxMPH,PrecipitationSumIn
2013-1-1,36.0,33.2,27.9,34.8,31.7,25.3,96,94,90,30.16,30.02,3,1,5,0.01
2013-1-2,26.0,25.0,23.7,20.4,19.0,17.8,80,78,76,30.24,30.22,0,0,0,0.00
2013-1-3,38.6,27.9,19.6,30.0,23.3,17.3,92,83,68,30.39,30.21,4,1,10,0.00
2013-1-4,39.5,31.5,24.9,30.2,26.5,22.9,93,82,67,30.42,30.34,6,1,14,0.00
2013-1-5,42.0,35.2,25.8,34.9,29.9,23.3,91,81,71,30.36,30.15,10,2,14,0.00
2013-1-6,40.0,34.8,25.6,36.0,30.1,22.0,91,83,77,30.38,30.09,9,4,19,0.00
2013-1-7,43.8,30.7,19.7,31.2,25.1,17.8,93,80,61,30.45,30.21,4,1,9,0.00
2013-1-8,54.5,41.3,27.3,40.5,33.5,23.9,88,75,57,30.29,30.16,12,2,15,0.00
2013-1-9,58.7,50.4,45.3,48.9,44.5,39.6,92,80,69,30.38,30.18,3,1,10,0.01
2013-1-11,58.2,57.4,56.8,53.9,52.5,51.4,86,84,82,29.90,29.89,7,3,7,0.79
2013-1-12,67.7,64.4,59.3,64.8,62.9,58.4,98,95,90,29.94,29.70,10,4,18,0.14
2013-1-13,68.6,40.7,26.3,64.2,39.3,22.8,97,95,86,30.26,29.69,14,3,23,2.96
2013-1-14,28.5,25.6,22.0,24.3,22.3,18.7,92,87,83,30.44,30.25,5,2,10,0.00
2013-1-15,31.5,27.8,22.2,29.8,25.0,20.0,95,89,81,30.32,30.05,4,1,9,0.00
2013-1-16,32.7,31.3,30.2,29.7,29.2,28.6,94,92,88,30.12,30.00,2,0,4,0.00
2013-1-17,47.3,36.4,29.4,39.1,31.8,27.5,95,84,63,30.32,30.09,9,2,18,0.09
2013-1-18,45.9,40.6,31.5,33.0,30.9,26.3,83,68,58,30.53,30.24,10,5,16,0.00
2013-1-19,56.1,46.6,37.0,38.3,34.0,30.1,77,62,46,30.24,29.98,23,11,35,0.00
2013-1-20,44.3,37.2,27.6,36.9,27.2,18.4,83,68,43,30.23,30.03,7,2,20,0.00
2013-1-21,29.8,25.1,17.6,20.9,14.3,7.0,80,64,46,30.32,30.16,10,3,21,0.00
2013-1-22,22.2,18.4,14.5,8.9,5.2,3.0,64,56,49,30.45,30.32,4,2,12,0.00
2013-1-23,41.2,36.5,28.5,25.8,22.2,13.9,71,56,50,30.31,30.10,10,4,17,0.00
2013-1-24,33.4,26.3,20.3,24.4,12.5,5.8,76,57,37,30.54,30.18,7,3,19,0.00
2013-1-25,33.2,27.3,24.7,28.1,21.8,9.3,94,81,50,30.29,30.09,6,2,11,0.05
2013-1-26,37.8,29.8,25.7,27.7,24.9,20.6,94,83,59,30.36,30.19,3,1,9,0.01
2013-1-27,47.7,35.5,25.8,44.2,32.7,23.0,99,89,81,30.34,30.09,6,2,14,0.08
2013-1-28,59.0,54.2,47.6,56.5,50.5,42.6,94,87,77,30.11,30.00,14,7,22,0.17
2013-1-29,66.3,60.3,54.3,61.4,57.1,52.0,93,89,84,30.00,29.67,16,7,24,0.00
2013-2-2,40.0,35.9,31.0,29.4,27.7,26.2,84,72,59,30.07,30.01,10,2,15,0.06
2013-2-3,33.3,30.4,25.0,31.0,26.9,20.7,95,87,73,30.16,29.95,6,2,11,0.00
2013-2-4,48.4,40.9,27.2,42.5,36.3,24.1,96,85,62,29.99,29.81,14,5,21,0.01
2013-2-5,52.9,38.9,32.5,43.4,36.1,31.0,97,90,69,30.05,29.86,10,3,16,0.02
2013-2-6,40.6,35.3,29.8,35.2,31.8,28.0,94,87,80,30.20,30.05,3,1,9,0.01
2013-2-7,66.5,51.7,37.9,51.4,42.7,33.5,95,73,54,30.09,29.79,13,3,18,0.16
2013-2-8,51.2,37.7,33.6,50.0,33.7,28.7,96,85,79,30.34,29.81,8,4,21,0.14
2013-2-9,48.7,36.6,29.9,34.1,29.7,26.3,90,77,54,30.37,30.18,5,1,11,0.00
2013-2-10,57.2,49.5,42.2,53.6,42.8,31.7,95,78,59,30.08,29.72,14,6,24,0.35
2013-2-11,56.0,47.5,39.2,53.8,36.5,30.1,94,67,43,30.10,29.78,15,6,19,0.00
2013-2-12,48.7,41.2,30.8,35.6,32.5,28.3,91,72,54,30.13,29.83,4,0,9,0.00
2013-2-13,42.0,38.2,33.6,37.0,33.8,31.6,95,85,71,29.92,29.75,8,2,12,0.10
2013-2-14,57.6,41.0,34.7,44.0,36.5,33.4,95,86,54,29.95,29.86,15,5,24,0.00
2013-2-15,43.4,39.0,36.2,37.6,34.2,32.7,87,83,74,30.11,29.98,6,1,13,0.00
2013-2-16,34.2,28.8,23.9,22.3,19.6,15.2,88,69,49,30.16,30.10,6,2,6,0.00
2013-3-5,34.7,33.4,31.9,32.5,29.4,26.4,96,85,77,29.89,29.77,11,8,18,0.03
2013-3-6,33.8,32.3,31.3,29.9,28.8,27.2,92,87,82,30.30,29.89,8,4,13,0.02
2013-3-7,39.3,34.5,31.4,31.8,29.5,27.2,92,82,72,30.38,30.28,2,0,4,0.01
2013-3-8,52.7,39.1,28.1,35.7,30.4,25.0,90,73,48,30.42,30.25,4,1,4,0.00
2013-3-9,60.0,51.2,37.7,40.7,37.0,31.2,79,59,46,30.25,29.94,6,3,13,0.00
2013-3-10,68.0,59.6,53.6,52.7,43.8,39.4,95,57,41,29.93,29.69,16,7,27,0.21
2013-3-11,54.5,46.0,37.0,53.7,42.9,32.1,97,89,78,29.94,29.66,14,7,27,1.24
2013-3-12,49.1,41.8,33.9,36.0,31.4,28.6,85,67,50,30.10,29.94,11,3,17,0.00
2013-3-13,40.1,33.6,26.8,33.5,23.9,19.4,83,68,57,30.39,30.09,9,4,17,0.00
2013-3-14,38.3,29.0,23.0,32.8,24.7,20.3,91,84,64,30.39,30.15,6,1,16,0.00
2013-3-15,69.1,45.3,34.4,52.7,38.4,31.5,90,78,51,30.15,29.68,11,2,16,0.00
2013-3-16,68.3,60.1,45.6,55.4,50.1,40.3,82,70,60,29.93,29.63,13,8,19,0.00
2013-6-17,88.1,76.2,64.0,77.8,70.7,62.9,97,84,68,29.90,29.78,6,1,10,0.15
2013-6-18,85.0,74.4,63.6,73.1,67.7,62.7,97,81,63,29.90,29.80,5,1,9,0.08
2013-6-19,84.8,73.8,61.7,73.0,67.6,60.8,98,82,64,30.00,29.90,2,0,9,0.00
2013-6-21,73.3,72.9,72.4,68.8,68.4,68.0,88,86,84,30.04,30.03,0,0,3,0.00
2013-6-22,88.7,77.9,69.7,76.8,71.0,67.0,94,80,59,30.11,29.98,7,1,15,0.00
2013-6-23,84.4,76.7,67.4,74.8,70.9,65.8,95,83,68,30.06,29.96,8,1,12,0.00
2013-6-24,75.6,72.0,68.8,72.0,70.2,68.2,98,94,86,30.11,30.00,6,1,8,0.81
2013-6-28,77.0,74.5,72.5,66.0,64.1,62.7,72,70,68,29.61,29.59,1,0,3,0.00
2013-6-29,82.8,74.1,64.8,71.0,66.6,61.9,97,79,62,29.61,29.52,8,2,14,0.07
2013-6-30,78.1,69.1,64.0,71.5,66.3,63.1,98,91,74,29.75,29.61,4,1,7,0.00
2013-7-1,74.2,69.0,65.8,70.2,67.0,64.9,98,94,83,29.82,29.71,3,0,6,0.04
2013-7-2,79.4,70.5,64.8,70.8,66.8,64.2,98,89,72,29.95,29.81,8,2,12,0.01
2013-7-3,80.4,70.1,62.1,70.6,65.7,61.1,98,87,68,30.04,29.95,5,1,10,0.00
2013-7-4,72.0,69.4,66.7,70.3,68.1,65.3,98,96,92,30.06,29.98,2,0,5,0.01
2013-7-5,80.5,70.8,64.3,73.9,68.6,63.6,98,93,78,30.05,29.98,5,0,6,0.10
2013-7-6,76.6,69.5,64.4,71.7,67.4,63.8,99,93,81,30.05,29.98,7,1,8,0.32
2013-7-7,84.6,74.3,65.1,74.5,69.8,64.5,98,87,65,30.06,29.97,4,1,8,0.01
2013-7-8,88.3,78.1,68.2,77.3,72.8,67.6,98,85,62,30.08,29.97,6,1,11,0.00
2013-7-9,90.6,81.9,73.9,79.8,76.0,72.3,96,83,65,30.04,29.91,9,2,11,0.00
2013-7-10,86.9,79.3,72.2,80.4,75.7,71.0,97,89,79,29.93,29.80,11,2,13,0.33
2013-7-11,83.9,75.2,67.1,73.9,68.8,62.8,99,82,59,29.94,29.86,3,1,9,0.00
2013-7-12,80.5,68.6,62.8,66.3,62.5,59.8,92,82,59,30.02,29.94,2,0,5,0.00
2013-7-13,83.8,72.5,60.9,72.2,65.9,58.9,95,80,65,30.00,29.93,1,0,5,0.00
2013-7-14,88.4,82.9,68.9,77.5,75.0,66.2,92,78,65,30.10,29.99,2,0,4,0.00
2013-7-15,87.1,80.0,73.8,77.7,74.1,71.0,92,83,70,30.20,30.09,7,1,10,0.00
2013-7-16,92.5,81.5,71.0,79.7,74.5,69.8,97,81,61,30.26,30.17,4,0,5,0.00
2013-7-17,91.8,80.2,73.0,80.6,75.7,72.1,98,87,64,30.25,30.18,2,0,5,0.00
2013-7-19,77.3,77.2,77.1,74.0,73.9,73.8,90,90,89,29.87,29.87,0,0,0,0.00
2013-7-20,88.6,80.8,70.7,78.0,74.6,69.7,98,82,68,29.88,29.77,10,5,15,0.25
2013-7-21,86.4,78.8,70.7,77.4,73.6,69.8,97,85,68,29.86,29.79,18,2,18,0.19
2013-7-22,84.3,78.8,72.2,77.0,74.3,71.9,99,87,73,29.80,29.73,8,2,13,0.08
2013-7-23,88.3,78.7,73.0,80.9,75.1,66.2,99,89,61,29.80,29.68,9,3,10,0.00
2013-7-26,70.1,69.5,69.0,66.8,66.4,66.2,92,90,88,29.94,29.92,0,0,3,0.00
2013-7-27,78.5,70.7,62.6,69.7,65.6,55.8,98,85,65,29.92,29.82,5,1,8,0.05
2013-7-28,77.0,64.6,52.8,61.3,56.6,51.4,97,77,52,30.01,29.92,7,1,10,0.00
2013-7-29,59.8,58.9,58.3,57.8,57.1,56.5,95,94,93,30.03,30.01,0,0,3,0.00
2013-7-30,73.7,69.7,66.3,69.2,67.1,63.9,98,92,79,30.12,30.01,3,1,6,0.36
2013-7-31,76.3,70.6,67.3,73.5,69.5,66.7,99,96,90,30.02,29.89,3,0,5,0.05
2013-8-2,74.2,73.2,72.0,69.7,69.2,68.6,90,87,84,29.93,29.88,0,0,0,0.00
2013-8-3,72.6,70.8,69.9,69.8,68.2,67.5,93,92,90,29.92,29.88,2,0,4,0.00
2013-8-6,79.1,79.0,78.7,76.1,75.9,75.7,91,90,90,29.84,29.83,3,1,4,0.00
2013-8-10,84.1,79.8,74.1,76.3,74.1,72.7,96,83,73,30.01,29.96,2,0,4,0.01
2013-8-11,86.8,77.5,70.9,75.8,72.4,69.1,99,85,64,30.04,29.97,4,0,5,0.00
2013-8-12,83.9,74.9,68.9,78.9,72.2,67.7,98,92,80,30.01,29.84,11,3,16,0.13
2013-8-18,79.8,74.2,68.5,73.5,69.5,67.1,97,86,71,30.05,30.00,2,0,3,0.02
2013-8-19,85.5,74.3,64.1,74.1,69.3,63.5,99,86,64,30.07,29.97,3,0,7,0.01
2013-8-20,87.1,75.1,65.4,76.6,71.1,64.8,99,88,67,30.06,29.97,5,0,7,0.00
2013-8-21,87.5,77.0,68.7,78.6,72.9,68.3,99,88,66,30.08,29.98,5,1,6,0.06
2013-8-22,89.3,79.0,70.0,76.9,73.1,69.4,99,84,60,30.06,29.94,7,1,7,0.00
2013-8-23,73.2,71.7,70.1,72.0,70.8,69.3,99,97,95,29.99,29.95,0,0,0,0.00
2013-8-25,78.7,75.5,73.1,74.2,72.7,71.5,95,91,85,30.18,30.14,0,0,0,0.00
2013-8-26,87.0,77.5,68.5,78.4,72.6,67.3,96,86,67,30.19,30.03,8,2,12,0.00
2013-9-3,77.2,68.3,64.1,69.4,65.4,63.2,98,91,75,29.97,29.86,2,0,5,0.00
2013-9-6,72.1,71.0,69.9,69.6,69.0,68.2,96,94,92,30.00,30.00,0,0,0,0.00
2013-9-7,86.0,75.1,65.2,74.1,69.6,64.6,98,84,62,30.02,29.89,6,1,11,0.00
2013-9-8,76.7,72.3,69.5,74.4,70.4,68.3,97,94,90,29.94,29.88,1,0,3,0.04
2013-9-13,58.2,56.2,53.5,53.1,52.0,50.1,89,86,83,30.01,30.00,0,0,1,0.00
2013-9-14,73.6,60.3,50.3,57.2,52.7,48.6,94,78,52,30.11,30.01,3,0,8,0.00
2013-9-15,67.0,55.6,50.7,61.0,53.0,49.3,96,91,80,30.06,29.99,1,0,4,0.00
2013-9-16,75.6,67.9,62.5,69.5,64.1,60.4,97,88,78,30.15,30.01,1,0,5,0.29
2013-9-17,79.7,67.8,59.8,67.6,62.2,58.4,96,83,63,30.18,30.04,2,0,6,0.00
2013-9-18,79.5,69.8,63.6,73.5,66.2,59.4,98,89,80,30.10,29.97,5,1,8,0.12
2013-9-20,69.8,68.9,67.4,69.5,68.6,67.1,99,99,99,29.78,29.77,1,0,5,1.34
2013-9-27,62.7,62.4,62.1,60.0,59.9,59.7,92,92,91,30.02,30.02,0,0,0,0.00
2013-9-28,80.9,68.5,59.1,66.1,60.8,57.4,95,78,55,30.10,29.98,11,2,15,0.00
2013-9-29,64.0,62.2,60.5,62.0,60.5,57.9,98,94,86,30.03,29.94,6,1,10,0.44
2013-9-30,76.4,67.7,62.6,67.7,64.6,62.0,99,90,72,29.96,29.88,8,2,16,0.02
2013-10-1,81.0,71.4,63.9,71.9,67.4,62.4,96,88,71,30.02,29.93,7,1,10,0.00
2013-10-2,77.3,71.2,66.7,74.4,69.9,66.2,99,96,89,30.05,29.97,5,1,10,0.01
2013-10-3,84.4,74.0,68.3,73.0,69.2,67.4,99,86,61,30.02,29.90,8,1,12,0.01
2013-10-4,84.8,74.9,67.1,75.2,70.5,65.5,96,87,68,30.01,29.92,7,2,10,0.00
2013-10-5,81.5,72.9,68.2,76.5,70.9,67.7,99,94,77,29.98,29.80,7,1,10,0.80
2013-10-6,68.6,60.5,50.1,68.3,58.8,46.1,99,95,75,29.88,29.75,4,1,10,0.50
2013-10-7,65.4,54.4,46.7,52.8,48.4,44.8,96,82,61,30.11,29.86,4,1,10,0.00
2013-10-8,70.2,56.8,45.8,54.5,50.2,45.0,98,81,52,30.18,30.08,2,0,6,0.00
2013-10-9,60.9,52.1,49.8,55.0,49.5,47.9,94,91,83,30.14,30.06,2,0,5,0.00
2013-12-25,41.2,36.9,33.3,30.9,26.3,-99.9,82,69,56,30.25,30.23,11,-15,14,0.01
2013-12-26,42.4,35.1,28.8,33.1,29.2,26.4,94,79,63,30.39,30.23,10,1,12,0.01
2013-12-27,51.1,39.2,28.9,37.2,30.9,25.2,86,73,56,30.42,30.29,14,2,14,0.00
2013-12-28,47.7,41.3,34.2,37.6,32.7,28.2,91,72,58,30.29,29.92,11,1,13,0.07
2013-12-29,49.3,37.6,28.0,45.5,35.0,-99.9,98,91,77,30.15,29.85,23,-1,23,0.26
2013-12-30,30.0,25.9,21.6,25.2,20.0,16.7,92,78,62,30.29,30.14,8,1,11,0.00
2013-12-31,39.4,30.5,21.6,27.5,23.5,17.8,92,76,60,30.42,30.24,9,2,10,0.00
2014-1-1,46.8,38.5,30.6,34.7,30.5,26.6,92,73,58,30.27,29.94,16,2,17,0.01
2014-1-2,39.6,26.3,16.9,37.9,22.9,10.4,97,87,71,30.40,29.80,21,4,27,0.10